Time;durP1;ratioP1;P1;durP2;ratioP2;P2;SDS_P1;SDS_P2;PMS_P1;PMS_P2;Temp;Humidity;BMP_temperature;BMP_pressure;BME280_temperature;BME280_humidity;BME280_pressure;Samples;Min_cycle;Max_cycle;Signal;HPM_P1;HPM_P2
2023/12/05 00:01:21;;;;;;;7.10;6.40;;;5.60;99.70;;;;;;4951581;28;20277;-33
2023/12/05 00:03:47;;;;;;;6.93;6.17;;;5.60;99.70;;;;;;4937976;28;20686;-34
2023/12/05 00:06:13;;;;;;;6.43;5.78;;;5.60;99.80;;;;;;4952780;28;21077;-34
2023/12/05 00:08:41;;;;;;;6.18;5.57;;;5.60;99.80;;;;;;4973012;28;20696;-30
2023/12/05 00:11:08;;;;;;;5.67;5.17;;;5.60;99.90;;;;;;4958607;28;20187;-33
2023/12/05 00:13:34;;;;;;;6.50;5.90;;;5.70;99.90;;;;;;4957681;28;20466;-33
2023/12/05 00:16:00;;;;;;;5.95;5.35;;;5.60;99.90;;;;;;4954119;28;20210;-35
2023/12/05 00:18:26;;;;;;;6.40;5.80;;;5.60;99.90;;;;;;4951196;28;20218;-36
2023/12/05 00:20:53;;;;;;;6.33;5.50;;;5.70;99.90;;;;;;4994645;22;20195;-26
2023/12/05 00:23:19;;;;;;;5.85;5.35;;;5.70;99.90;;;;;;5014375;28;20456;-26
2023/12/05 00:25:50;;;;;;;6.40;5.80;;;5.60;99.80;;;;;;5017410;28;20255;-27
2023/12/05 00:28:18;;;;;;;5.85;5.20;;;5.70;99.90;;;;;;5010119;28;21785;-26
2023/12/05 00:30:44;;;;;;;7.20;6.50;;;5.70;99.90;;;;;;5014365;28;20201;-26
2023/12/05 00:33:10;;;;;;;7.10;6.40;;;5.70;99.90;;;;;;5013624;28;20785;-27
2023/12/05 00:35:36;;;;;;;7.10;6.03;;;5.70;99.90;;;;;;5018827;28;20526;-27
2023/12/05 00:38:02;;;;;;;8.10;6.40;;;5.70;99.90;;;;;;5016447;28;20432;-27
2023/12/05 00:40:31;;;;;;;6.68;6.00;;;5.70;99.90;;;;;;5000248;28;20432;-27
2023/12/05 00:43:00;;;;;;;6.23;5.60;;;5.70;99.90;;;;;;5008936;28;20303;-26
2023/12/05 00:45:26;;;;;;;6.73;5.57;;;5.70;99.80;;;;;;5016235;28;20454;-27
2023/12/05 00:47:53;;;;;;;6.13;5.53;;;5.70;99.80;;;;;;5014314;28;20475;-26
2023/12/05 00:50:21;;;;;;;6.70;5.80;;;5.70;99.80;;;;;;5020360;28;21142;-26
2023/12/05 00:52:47;;;;;;;6.05;5.47;;;5.70;99.90;;;;;;5016416;28;20220;-27
2023/12/05 00:55:16;;;;;;;6.03;5.43;;;5.70;99.90;;;;;;5019811;28;20201;-26
2023/12/05 00:57:42;;;;;;;7.18;5.47;;;5.70;99.90;;;;;;5019941;28;20189;-26
2023/12/05 01:00:11;;;;;;;5.70;5.15;;;5.70;99.90;;;;;;4988804;28;20229;-25
2023/12/05 01:02:42;;;;;;;6.15;5.55;;;5.70;99.90;;;;;;5015137;28;20200;-27
2023/12/05 01:05:09;;;;;;;5.38;4.88;;;5.70;99.90;;;;;;5013491;28;20701;-27
2023/12/05 01:07:36;;;;;;;7.55;5.70;;;5.70;99.90;;;;;;5018461;28;20248;-26
2023/12/05 01:10:03;;;;;;;6.60;5.90;;;5.80;99.90;;;;;;5013371;28;20547;-27
2023/12/05 01:12:29;;;;;;;6.25;5.63;;;5.70;99.90;;;;;;5018314;28;20224;-27
2023/12/05 01:14:59;;;;;;;6.47;5.63;;;5.70;99.90;;;;;;5017571;28;20207;-27
2023/12/05 01:17:32;;;;;;;6.43;5.82;;;5.70;99.90;;;;;;5015263;28;20668;-26
2023/12/05 01:19:58;;;;;;;6.70;6.10;;;5.70;99.90;;;;;;5012511;28;20189;-27
2023/12/05 01:22:24;;;;;;;6.23;5.70;;;5.70;99.90;;;;;;4997211;28;20231;-27
2023/12/05 01:24:57;;;;;;;6.13;5.53;;;5.70;99.90;;;;;;5012959;28;20465;-26
2023/12/05 01:27:25;;;;;;;6.20;5.60;;;5.80;99.90;;;;;;5016644;28;20858;-27
2023/12/05 01:29:52;;;;;;;6.65;5.20;;;5.80;99.90;;;;;;5009657;28;20529;-27
2023/12/05 01:32:18;;;;;;;5.60;5.03;;;5.70;99.90;;;;;;5003746;28;21074;-28
2023/12/05 01:34:45;;;;;;;6.23;5.63;;;5.80;99.90;;;;;;4996032;28;20217;-24
2023/12/05 01:37:11;;;;;;;6.47;5.87;;;5.80;99.90;;;;;;5000813;28;20449;-25
2023/12/05 01:39:37;;;;;;;5.73;5.10;;;5.80;99.90;;;;;;5008110;28;20430;-26
2023/12/05 01:42:04;;;;;;;6.00;5.40;;;5.80;99.90;;;;;;4998887;28;21227;-26
2023/12/05 01:44:30;;;;;;;6.40;5.40;;;5.80;99.90;;;;;;4997190;28;21006;-26
2023/12/05 01:46:55;;;;;;;6.23;5.50;;;5.80;99.90;;;;;;4993548;28;20291;-28
2023/12/05 01:49:24;;;;;;;7.23;6.10;;;5.80;99.90;;;;;;5009971;28;20455;-27
2023/12/05 01:51:52;;;;;;;6.10;5.50;;;5.80;99.90;;;;;;5007609;28;20436;-27
2023/12/05 01:54:19;;;;;;;5.60;5.03;;;5.80;99.90;;;;;;4990587;28;20977;-27
2023/12/05 01:56:46;;;;;;;7.60;6.32;;;5.80;99.90;;;;;;5001766;28;20194;-25
2023/12/05 01:59:12;;;;;;;7.30;5.88;;;5.80;99.90;;;;;;5005019;28;20287;-25
2023/12/05 02:01:38;;;;;;;6.07;5.47;;;5.80;99.90;;;;;;4999419;28;20209;-26
2023/12/05 02:04:04;;;;;;;6.32;5.72;;;5.80;99.90;;;;;;5010218;28;20606;-27
2023/12/05 02:06:37;;;;;;;6.83;6.13;;;5.80;99.90;;;;;;5000300;28;20206;-25
2023/12/05 02:09:08;;;;;;;6.93;6.23;;;5.80;99.90;;;;;;4994231;28;20432;-26
2023/12/05 02:11:35;;;;;;;7.28;5.72;;;5.80;99.90;;;;;;5007660;28;21218;-26
2023/12/05 02:14:02;;;;;;;6.10;5.50;;;5.80;99.90;;;;;;5004864;28;20297;-25
2023/12/05 02:17:00;;;;;;;6.43;5.87;;;5.90;99.90;;;;;;5002895;28;20432;-26
2023/12/05 02:19:42;;;;;;;6.57;5.80;;;5.80;99.90;;;;;;4940092;28;20441;-26
2023/12/05 02:22:40;;;;;;;5.13;4.63;;;5.80;99.90;;;;;;5002698;28;20514;-27
2023/12/05 02:25:17;;;;;;;5.72;5.22;;;5.90;99.90;;;;;;4999167;28;20220;-27
2023/12/05 02:27:45;;;;;;;5.97;5.33;;;5.90;99.90;;;;;;4994867;28;20422;-25
2023/12/05 02:30:14;;;;;;;6.43;5.50;;;5.90;99.90;;;;;;5003673;28;20937;-26
2023/12/05 02:32:40;;;;;;;7.50;6.80;;;5.80;99.90;;;;;;4967406;28;20459;-26
2023/12/05 02:35:11;;;;;;;6.37;5.67;;;5.90;99.90;;;;;;5006918;28;20513;-28
2023/12/05 02:38:11;;;;;;;5.10;4.40;;;5.90;99.90;;;;;;5001283;28;20437;-29
2023/12/05 02:41:06;;;;;;;5.87;5.13;;;5.90;99.90;;;;;;4998097;28;20433;-28
2023/12/05 02:44:12;;;;;;;5.87;4.90;;;5.90;99.90;;;;;;4990413;28;20468;-25
2023/12/05 02:46:41;;;;;;;5.63;5.13;;;5.90;99.90;;;;;;4970725;28;20514;-26
2023/12/05 02:49:11;;;;;;;5.93;5.32;;;5.90;99.90;;;;;;5004300;28;20441;-26
2023/12/05 02:51:37;;;;;;;5.80;5.20;;;5.90;99.90;;;;;;5008438;28;20176;-26
2023/12/05 02:54:06;;;;;;;5.78;5.28;;;5.90;99.90;;;;;;5007046;28;20685;-25
2023/12/05 02:56:36;;;;;;;6.97;5.20;;;5.90;99.90;;;;;;5006472;28;20619;-27
2023/12/05 02:59:02;;;;;;;8.13;5.55;;;5.90;99.90;;;;;;5005180;28;20190;-27
2023/12/05 03:01:29;;;;;;;6.10;5.18;;;5.90;99.90;;;;;;5005091;28;20197;-26
2023/12/05 03:03:58;;;;;;;5.80;5.15;;;5.90;99.90;;;;;;5007245;28;20209;-26
2023/12/05 03:06:24;;;;;;;6.32;5.60;;;5.90;99.90;;;;;;4985230;28;20844;-26
2023/12/05 03:08:50;;;;;;;5.40;4.85;;;5.90;99.90;;;;;;5001509;28;20198;-26
2023/12/05 03:11:16;;;;;;;5.65;5.07;;;5.90;99.90;;;;;;5001422;28;20194;-25
2023/12/05 03:13:44;;;;;;;5.87;5.37;;;5.90;99.90;;;;;;4983347;28;20868;-25
2023/12/05 03:16:11;;;;;;;6.32;5.72;;;5.90;99.90;;;;;;5004991;28;20449;-26
2023/12/05 03:18:38;;;;;;;7.25;5.75;;;5.90;99.90;;;;;;4999146;28;20234;-29
2023/12/05 03:21:04;;;;;;;8.65;5.50;;;5.90;99.90;;;;;;4998931;28;20225;-25
2023/12/05 03:23:31;;;;;;;6.32;5.75;;;5.90;99.90;;;;;;5007847;28;20217;-26
2023/12/05 03:25:57;;;;;;;4.90;4.50;;;6.00;99.90;;;;;;4996558;28;20284;-26
2023/12/05 03:28:23;;;;;;;7.18;5.50;;;6.00;99.90;;;;;;5006680;28;20544;-26
2023/12/05 03:30:49;;;;;;;6.60;4.73;;;5.90;99.90;;;;;;5010290;28;20213;-27
2023/12/05 11:30:16;;;;;;;2.47;2.27;;;6.70;99.90;;;;;;5018349;28;20541;-73
2023/12/05 11:32:51;;;;;;;2.40;2.20;;;6.80;99.90;;;;;;4968500;28;21046;-39
2023/12/05 11:35:43;;;;;;;3.00;2.70;;;6.80;99.90;;;;;;4963402;28;21004;-36
2023/12/05 11:38:15;;;;;;;2.90;2.47;;;6.80;99.90;;;;;;4959995;28;20458;-38
2023/12/05 11:40:41;;;;;;;2.90;2.53;;;6.80;99.90;;;;;;4956957;28;20905;-38
2023/12/05 11:43:09;;;;;;;3.10;2.20;;;6.80;99.90;;;;;;4955083;28;20517;-39
2023/12/05 11:45:40;;;;;;;2.50;2.30;;;6.90;99.90;;;;;;4950811;28;21003;-39
2023/12/05 11:48:09;;;;;;;5.33;2.50;;;6.90;99.90;;;;;;4958768;28;20528;-39
2023/12/05 11:50:42;;;;;;;2.33;2.13;;;6.90;99.90;;;;;;4956907;28;20449;-33
2023/12/05 11:53:11;;;;;;;2.23;2.03;;;6.90;99.90;;;;;;4961324;28;20521;-36
2023/12/05 11:55:47;;;;;;;2.70;2.47;;;6.90;99.90;;;;;;4958000;28;20415;-36
2023/12/05 11:58:30;;;;;;;2.37;2.17;;;7.00;99.90;;;;;;4960636;28;20477;-40
2023/12/05 12:01:09;;;;;;;2.50;2.30;;;7.00;99.90;;;;;;4962060;28;20434;-35
2023/12/05 12:03:55;;;;;;;3.10;2.10;;;7.00;99.90;;;;;;4964707;28;20458;-37
2023/12/05 12:06:25;;;;;;;3.33;2.50;;;7.00;99.90;;;;;;4960646;28;20617;-38
2023/12/05 12:08:58;;;;;;;2.57;2.30;;;7.00;99.90;;;;;;4953362;28;20423;-33
2023/12/05 12:11:24;;;;;;;2.60;2.40;;;7.00;99.90;;;;;;4950627;28;20457;-37
2023/12/05 12:13:53;;;;;;;3.83;2.47;;;7.00;99.90;;;;;;4958681;28;20538;-36
2023/12/05 12:16:20;;;;;;;2.37;2.07;;;7.00;99.90;;;;;;4960742;28;21074;-38
2023/12/05 12:18:49;;;;;;;3.20;2.50;;;7.00;99.90;;;;;;4958970;28;20418;-37
2023/12/05 12:21:16;;;;;;;2.47;2.27;;;7.00;99.90;;;;;;4967135;28;20443;-34
2023/12/05 12:23:44;;;;;;;2.57;2.33;;;7.00;99.90;;;;;;4948742;28;20474;-39
2023/12/05 12:26:14;;;;;;;2.70;2.20;;;7.00;99.90;;;;;;4956702;28;20454;-38
2023/12/05 12:28:40;;;;;;;2.80;2.30;;;7.10;99.90;;;;;;4956457;28;20426;-37
2023/12/05 12:31:07;;;;;;;2.60;2.10;;;7.00;99.90;;;;;;4957549;28;20989;-39
2023/12/05 12:33:40;;;;;;;2.17;1.97;;;7.10;99.90;;;;;;4953771;28;20876;-39
2023/12/05 12:36:10;;;;;;;2.30;2.10;;;7.10;99.90;;;;;;4937879;28;20486;-39
2023/12/05 12:38:36;;;;;;;2.30;2.10;;;7.10;99.90;;;;;;4960403;28;20549;-39
2023/12/05 12:41:03;;;;;;;2.90;2.57;;;7.10;99.90;;;;;;4960636;28;20481;-36
2023/12/05 12:43:30;;;;;;;3.00;2.10;;;7.10;99.90;;;;;;4957352;28;20458;-35
2023/12/05 12:45:56;;;;;;;2.63;2.03;;;7.10;99.90;;;;;;4953149;28;21009;-34
2023/12/05 12:48:22;;;;;;;2.50;2.17;;;7.10;99.90;;;;;;4959474;28;20473;-35
2023/12/05 12:50:53;;;;;;;2.30;2.10;;;7.10;99.90;;;;;;4943614;28;20681;-34
2023/12/05 12:53:19;;;;;;;3.00;2.20;;;7.10;99.90;;;;;;4953337;28;20424;-35
2023/12/05 12:55:46;;;;;;;2.63;2.13;;;7.10;99.90;;;;;;4958901;28;21322;-39
2023/12/05 12:58:12;;;;;;;2.50;2.30;;;7.10;99.90;;;;;;4956815;28;20631;-38
2023/12/05 13:00:40;;;;;;;2.73;2.13;;;7.10;99.90;;;;;;4956268;28;20498;-37
2023/12/05 13:03:08;;;;;;;2.03;1.90;;;7.20;99.90;;;;;;4940012;28;20439;-35
2023/12/05 13:05:41;;;;;;;2.53;2.30;;;7.10;99.90;;;;;;4957907;28;20494;-39
2023/12/05 13:08:11;;;;;;;2.20;1.87;;;7.20;99.90;;;;;;4960591;28;20577;-36
2023/12/05 13:10:38;;;;;;;2.83;2.10;;;7.20;99.90;;;;;;4951220;28;21368;-36
2023/12/05 13:13:04;;;;;;;2.20;2.00;;;7.20;99.90;;;;;;4957328;28;20438;-39
2023/12/05 13:15:32;;;;;;;3.40;2.20;;;7.20;99.90;;;;;;4973435;28;20901;-35
2023/12/05 13:17:59;;;;;;;2.70;2.50;;;7.20;99.90;;;;;;4952632;28;20449;-38
2023/12/05 13:20:29;;;;;;;2.23;1.90;;;7.20;99.90;;;;;;4954244;28;20439;-38
2023/12/05 13:22:58;;;;;;;2.10;2.00;;;7.20;99.90;;;;;;4960047;28;20437;-36
2023/12/05 13:25:24;;;;;;;2.30;2.07;;;7.20;99.90;;;;;;4956355;28;20534;-37
2023/12/05 13:27:54;;;;;;;2.57;2.37;;;7.20;99.90;;;;;;4957110;28;20485;-34
2023/12/05 13:30:28;;;;;;;2.70;2.50;;;7.20;99.90;;;;;;4958224;28;20646;-39
2023/12/05 13:32:54;;;;;;;2.43;1.70;;;7.20;99.90;;;;;;4959125;28;20431;-37
2023/12/05 13:35:20;;;;;;;1.80;1.70;;;7.20;99.90;;;;;;4961061;28;20442;-39
2023/12/05 13:37:47;;;;;;;2.73;2.07;;;7.20;99.90;;;;;;4956790;28;20461;-34
2023/12/05 13:40:13;;;;;;;2.67;2.33;;;7.20;99.90;;;;;;4957511;28;20430;-39
2023/12/05 13:42:39;;;;;;;1.90;1.80;;;7.20;99.90;;;;;;4960635;28;20576;-39
2023/12/05 13:45:06;;;;;;;2.23;1.97;;;7.20;99.90;;;;;;4958615;28;20533;-36
2023/12/05 13:47:32;;;;;;;3.70;2.43;;;7.20;99.90;;;;;;4941008;28;20972;-39
2023/12/05 13:49:58;;;;;;;2.40;2.20;;;7.30;99.90;;;;;;4956997;28;20531;-39
2023/12/05 13:52:24;;;;;;;2.60;2.40;;;7.30;99.90;;;;;;4955205;28;20961;-36
2023/12/05 13:54:50;;;;;;;2.50;2.30;;;7.30;99.90;;;;;;4973476;28;20497;-37
2023/12/05 13:57:17;;;;;;;3.13;2.83;;;7.30;99.90;;;;;;4959757;28;20510;-37
2023/12/05 13:59:43;;;;;;;4.33;3.30;;;7.30;99.90;;;;;;4957839;28;20435;-38
2023/12/05 14:02:12;;;;;;;4.23;3.00;;;7.30;99.90;;;;;;4971165;28;21204;-38
2023/12/05 14:04:40;;;;;;;3.77;3.47;;;7.20;99.90;;;;;;4955257;28;20440;-38
2023/12/05 14:07:09;;;;;;;3.87;3.50;;;7.30;99.90;;;;;;4957777;28;20569;-38
2023/12/05 14:09:35;;;;;;;3.47;3.17;;;7.30;99.90;;;;;;4968922;28;20460;-39
2023/12/05 14:12:11;;;;;;;4.57;4.00;;;7.30;99.90;;;;;;4955109;28;20439;-39
2023/12/05 14:14:39;;;;;;;4.93;4.43;;;7.30;99.90;;;;;;4955930;28;20465;-38
2023/12/05 14:17:05;;;;;;;5.40;4.53;;;7.30;99.90;;;;;;4959293;28;20950;-38
2023/12/05 14:19:32;;;;;;;4.43;4.00;;;7.30;99.90;;;;;;4959459;28;20430;-37
2023/12/05 14:22:00;;;;;;;5.70;4.30;;;7.30;99.90;;;;;;4961009;28;20601;-40
2023/12/05 14:24:27;;;;;;;5.77;5.07;;;7.30;99.90;;;;;;4952188;28;21348;-35
2023/12/05 14:26:58;;;;;;;6.00;5.07;;;7.30;99.90;;;;;;4956381;28;20470;-39
2023/12/05 14:29:31;;;;;;;4.90;4.00;;;7.30;99.90;;;;;;4945917;28;20461;-37
2023/12/05 14:31:57;;;;;;;6.50;4.90;;;7.30;99.90;;;;;;4952226;28;20453;-34
2023/12/05 14:34:23;;;;;;;5.60;5.10;;;7.30;99.90;;;;;;4947221;28;20479;-37
2023/12/05 14:36:57;;;;;;;5.30;4.80;;;7.30;99.90;;;;;;4951468;28;20830;-39
2023/12/05 14:39:25;;;;;;;5.97;4.53;;;7.30;99.90;;;;;;4960174;28;20537;-39
2023/12/05 14:41:53;;;;;;;6.53;4.93;;;7.30;99.90;;;;;;4950330;28;20450;-39
2023/12/05 14:44:20;;;;;;;6.10;5.27;;;7.30;99.90;;;;;;4952615;28;20541;-39
2023/12/05 14:46:49;;;;;;;5.53;5.00;;;7.30;99.90;;;;;;4966812;28;20520;-38
2023/12/05 14:49:16;;;;;;;7.60;5.50;;;7.30;99.90;;;;;;4949787;28;20451;-38
2023/12/05 14:51:47;;;;;;;9.07;7.00;;;7.30;99.90;;;;;;4947957;28;20435;-35
2023/12/05 14:54:13;;;;;;;7.17;6.10;;;7.30;99.90;;;;;;4946769;28;21052;-36
2023/12/05 14:56:40;;;;;;;7.63;6.27;;;7.30;99.90;;;;;;4948595;28;20450;-37
2023/12/05 14:59:06;;;;;;;8.67;6.53;;;7.30;99.90;;;;;;4970068;28;20466;-37
2023/12/05 15:01:32;;;;;;;7.70;6.17;;;7.30;99.90;;;;;;4959507;28;20945;-35
2023/12/05 15:04:00;;;;;;;7.80;6.80;;;7.30;99.90;;;;;;4959844;28;20457;-37
2023/12/05 15:06:26;;;;;;;9.00;6.70;;;7.30;99.90;;;;;;4957964;28;20431;-35
2023/12/05 15:08:54;;;;;;;9.60;8.13;;;7.30;99.90;;;;;;4974730;28;20470;-37
2023/12/05 15:11:22;;;;;;;9.83;7.77;;;7.30;99.90;;;;;;4954792;28;20422;-32
2023/12/05 15:13:52;;;;;;;9.30;7.37;;;7.30;99.90;;;;;;4951333;28;20935;-38
2023/12/05 15:16:17;;;;;;;10.90;7.30;;;7.30;99.90;;;;;;4967570;28;20580;-37
2023/12/05 15:18:48;;;;;;;9.90;7.90;;;7.20;99.90;;;;;;4958532;28;20434;-36
2023/12/05 15:21:15;;;;;;;10.33;7.63;;;7.20;99.90;;;;;;4955473;28;20465;-38
2023/12/05 15:23:43;;;;;;;9.10;7.60;;;7.30;99.90;;;;;;4953024;28;20459;-37
2023/12/05 15:26:14;;;;;;;9.90;7.53;;;7.30;99.90;;;;;;4948598;28;20961;-38
2023/12/05 15:28:41;;;;;;;11.00;7.40;;;7.20;99.90;;;;;;4972376;28;20478;-35
2023/12/05 15:31:07;;;;;;;17.00;10.07;;;7.30;99.90;;;;;;4955064;28;20525;-35
2023/12/05 15:33:33;;;;;;;12.83;7.50;;;7.30;99.90;;;;;;4950491;28;20473;-36
2023/12/05 15:36:05;;;;;;;10.53;7.17;;;7.20;99.90;;;;;;4960205;28;20457;-33
2023/12/05 15:38:32;;;;;;;11.10;8.63;;;7.30;99.90;;;;;;4953470;28;20426;-32
2023/12/05 15:40:57;;;;;;;10.87;7.90;;;7.30;99.90;;;;;;4940861;28;20449;-34
2023/12/05 15:43:24;;;;;;;11.30;8.70;;;7.20;99.90;;;;;;4953534;28;20428;-36
2023/12/05 15:45:53;;;;;;;10.10;8.40;;;7.30;99.90;;;;;;4956732;28;20443;-35
2023/12/05 15:48:21;;;;;;;10.40;8.20;;;7.30;99.90;;;;;;4963293;28;21391;-35
2023/12/05 15:50:52;;;;;;;10.37;8.57;;;7.20;99.90;;;;;;4955983;28;20434;-37
2023/12/05 15:53:20;;;;;;;9.83;7.93;;;7.20;99.90;;;;;;4944530;28;20848;-36
2023/12/05 15:55:49;;;;;;;9.77;7.70;;;7.30;99.90;;;;;;4950749;28;20895;-38
2023/12/05 15:58:17;;;;;;;11.40;8.83;;;7.30;99.90;;;;;;4961521;28;20468;-38
2023/12/05 16:00:43;;;;;;;9.80;8.07;;;7.20;99.90;;;;;;4957216;28;20552;-38
2023/12/05 16:03:09;;;;;;;8.83;7.93;;;7.20;99.90;;;;;;4949665;28;20439;-37
2023/12/05 16:05:38;;;;;;;9.87;8.03;;;7.20;99.90;;;;;;4946075;28;20438;-38
2023/12/05 16:08:05;;;;;;;12.73;7.97;;;7.30;99.90;;;;;;4951566;28;20485;-36
2023/12/05 16:10:34;;;;;;;10.60;7.63;;;7.20;99.90;;;;;;4963563;28;20418;-37
2023/12/05 16:13:04;;;;;;;10.73;8.70;;;7.20;99.90;;;;;;4961045;28;20438;-39
2023/12/05 16:15:32;;;;;;;9.83;7.60;;;7.30;99.90;;;;;;4961759;28;20550;-36
2023/12/05 16:17:59;;;;;;;11.33;8.07;;;7.20;99.90;;;;;;4957000;28;20501;-34
2023/12/05 16:20:28;;;;;;;9.73;7.70;;;7.20;99.90;;;;;;4956618;28;21060;-35
2023/12/05 16:22:58;;;;;;;8.48;7.38;;;7.20;99.90;;;;;;4961145;28;20434;-35
2023/12/05 16:25:27;;;;;;;13.87;8.57;;;7.20;99.90;;;;;;4956915;28;20294;-38
2023/12/05 16:27:53;;;;;;;11.77;8.20;;;7.20;99.90;;;;;;4959918;28;20580;-35
2023/12/05 16:30:21;;;;;;;10.13;7.60;;;7.20;99.90;;;;;;4951873;28;20427;-38
2023/12/05 16:32:49;;;;;;;10.07;6.97;;;7.20;99.90;;;;;;4945459;28;20582;-38
2023/12/05 16:35:18;;;;;;;13.03;9.07;;;7.20;99.90;;;;;;4956885;28;20973;-38
2023/12/05 16:37:44;;;;;;;12.13;8.17;;;7.20;99.90;;;;;;4954653;28;20434;-36
2023/12/05 16:40:13;;;;;;;8.20;6.97;;;7.30;99.90;;;;;;4959062;28;20440;-37
2023/12/05 16:42:43;;;;;;;7.93;7.13;;;7.20;99.90;;;;;;4960304;28;20479;-39
2023/12/05 16:45:12;;;;;;;10.20;7.83;;;7.20;99.90;;;;;;4961950;28;21081;-38
2023/12/05 16:47:40;;;;;;;9.13;7.73;;;7.20;99.90;;;;;;4973087;28;21176;-35
2023/12/05 16:50:07;;;;;;;9.37;7.13;;;7.20;99.90;;;;;;4942839;28;21005;-36
2023/12/05 16:52:38;;;;;;;11.80;7.30;;;7.20;99.90;;;;;;4956900;28;20513;-32
2023/12/05 16:55:04;;;;;;;7.70;6.43;;;7.20;99.90;;;;;;4961493;28;20446;-37
2023/12/05 16:57:31;;;;;;;9.00;7.80;;;7.20;99.90;;;;;;4955246;28;20449;-38
2023/12/05 16:59:59;;;;;;;10.07;7.90;;;7.20;99.90;;;;;;4941957;28;20505;-37
2023/12/05 17:02:27;;;;;;;10.67;7.67;;;7.20;99.90;;;;;;4952551;28;20432;-39
2023/12/05 17:04:54;;;;;;;9.00;7.60;;;7.20;99.90;;;;;;4958519;28;20466;-37
2023/12/05 17:07:20;;;;;;;8.27;7.10;;;7.20;99.90;;;;;;4974296;28;20561;-42
2023/12/05 17:09:46;;;;;;;10.60;7.57;;;7.20;99.90;;;;;;4956190;28;20433;-32
2023/12/05 17:12:13;;;;;;;9.27;6.97;;;7.20;99.90;;;;;;4959312;28;21072;-37
2023/12/05 17:14:42;;;;;;;9.53;7.63;;;7.20;99.90;;;;;;4957893;28;20447;-35
2023/12/05 17:17:10;;;;;;;9.83;7.30;;;7.20;99.90;;;;;;4958391;28;20426;-38
2023/12/05 17:19:36;;;;;;;9.43;7.50;;;7.20;99.90;;;;;;4960094;28;20431;-38
2023/12/05 17:22:07;;;;;;;8.73;6.80;;;7.20;99.90;;;;;;4958255;28;20450;-34
2023/12/05 17:24:33;;;;;;;9.47;7.20;;;7.20;99.90;;;;;;4956635;28;20978;-33
2023/12/05 17:27:04;;;;;;;9.17;7.57;;;7.20;99.90;;;;;;4952190;28;20474;-36
2023/12/05 17:29:32;;;;;;;10.83;8.17;;;7.20;99.90;;;;;;4974956;28;20458;-35
2023/12/05 17:32:03;;;;;;;8.20;7.20;;;7.20;99.90;;;;;;4936885;28;20455;-35
2023/12/05 17:34:29;;;;;;;11.90;8.67;;;7.20;99.90;;;;;;4957430;28;20443;-35
2023/12/05 17:36:55;;;;;;;11.13;8.27;;;7.20;99.90;;;;;;4955501;28;20427;-34
2023/12/05 17:39:29;;;;;;;10.20;8.17;;;7.20;99.90;;;;;;4959314;28;20450;-37
2023/12/05 17:41:57;;;;;;;9.97;7.63;;;7.20;99.90;;;;;;4957657;28;20481;-33
2023/12/05 17:44:25;;;;;;;11.63;8.20;;;7.20;99.90;;;;;;4961245;28;20493;-38
2023/12/05 17:46:51;;;;;;;10.07;8.70;;;7.20;99.90;;;;;;4953339;28;21806;-37
2023/12/05 17:49:17;;;;;;;11.23;8.70;;;7.20;99.90;;;;;;4955891;28;20442;-36
2023/12/05 17:51:43;;;;;;;14.03;8.80;;;7.20;99.90;;;;;;4950014;28;20428;-36
2023/12/05 17:54:12;;;;;;;13.50;9.40;;;7.20;99.90;;;;;;4953350;28;20446;-38
2023/12/05 17:56:38;;;;;;;10.53;8.07;;;7.20;99.90;;;;;;4956358;28;21286;-37
2023/12/05 17:59:07;;;;;;;13.10;10.30;;;7.20;99.90;;;;;;4961192;28;20446;-35
2023/12/05 18:01:33;;;;;;;13.03;10.47;;;7.20;99.90;;;;;;4950276;28;20426;-37
2023/12/05 18:04:00;;;;;;;13.77;10.83;;;7.20;99.90;;;;;;4950216;28;20987;-39
2023/12/05 18:06:28;;;;;;;12.23;9.77;;;7.20;99.90;;;;;;4956026;28;20441;-39
2023/12/05 18:08:58;;;;;;;12.40;10.17;;;7.20;99.90;;;;;;4957631;28;20943;-38
2023/12/05 18:11:25;;;;;;;13.03;9.90;;;7.10;99.90;;;;;;4960627;28;21360;-37
2023/12/05 18:13:51;;;;;;;14.67;10.07;;;7.20;99.90;;;;;;4951438;28;20463;-38
2023/12/05 18:16:17;;;;;;;13.50;10.30;;;7.20;99.90;;;;;;4958718;28;20451;-35
2023/12/05 18:18:49;;;;;;;12.23;8.80;;;7.20;99.90;;;;;;4954171;28;20427;-36
2023/12/05 18:21:19;;;;;;;13.43;9.53;;;7.20;99.90;;;;;;4953856;28;20447;-37
2023/12/05 18:23:45;;;;;;;14.07;9.43;;;7.10;99.90;;;;;;4956046;28;21371;-37
2023/12/05 18:26:15;;;;;;;13.80;10.50;;;7.20;99.90;;;;;;4968683;28;20659;-37
2023/12/05 18:28:43;;;;;;;13.23;9.77;;;7.20;99.90;;;;;;4954781;28;20505;-36
2023/12/05 18:31:12;;;;;;;13.93;10.30;;;7.10;99.90;;;;;;4954213;28;20572;-38
2023/12/05 18:33:39;;;;;;;14.50;10.23;;;7.20;99.90;;;;;;4951502;28;20486;-33
2023/12/05 18:36:05;;;;;;;13.63;10.07;;;7.20;99.90;;;;;;4954492;28;20455;-35
2023/12/05 18:38:31;;;;;;;15.87;10.37;;;7.20;99.90;;;;;;4956677;28;20991;-38
2023/12/05 18:40:57;;;;;;;14.40;10.57;;;7.20;99.90;;;;;;4953013;28;20554;-38
2023/12/05 18:43:23;;;;;;;15.07;10.40;;;7.10;99.90;;;;;;4955548;28;20529;-34
2023/12/05 18:45:52;;;;;;;18.40;11.40;;;7.10;99.90;;;;;;4954812;28;20433;-35
2023/12/05 18:48:20;;;;;;;13.90;9.83;;;7.10;99.90;;;;;;4953042;28;21332;-35
2023/12/05 18:50:46;;;;;;;14.23;10.70;;;7.20;99.90;;;;;;4936330;28;21068;-38
2023/12/05 18:53:18;;;;;;;15.30;10.20;;;7.20;99.90;;;;;;4955390;28;20446;-35
2023/12/05 18:55:43;;;;;;;17.17;11.60;;;7.20;99.90;;;;;;4956624;28;20438;-37
2023/12/05 18:58:10;;;;;;;17.57;11.50;;;7.20;99.90;;;;;;4954185;28;21031;-37
2023/12/05 19:00:36;;;;;;;14.43;10.70;;;7.10;99.90;;;;;;4958968;28;20765;-38
2023/12/05 19:03:04;;;;;;;16.70;11.10;;;7.10;99.90;;;;;;4958961;28;21254;-38
2023/12/05 19:05:32;;;;;;;14.47;10.30;;;7.10;99.90;;;;;;4972075;28;20458;-36
2023/12/05 19:08:05;;;;;;;15.80;11.10;;;7.10;99.90;;;;;;4973338;28;20557;-38
2023/12/05 19:10:31;;;;;;;17.47;11.60;;;7.20;99.90;;;;;;4973327;28;20470;-38
2023/12/05 19:12:59;;;;;;;15.77;11.03;;;7.10;99.90;;;;;;4966829;28;20431;-33
2023/12/05 19:15:26;;;;;;;15.30;10.63;;;7.20;99.90;;;;;;4951340;28;20492;-38
2023/12/05 19:17:53;;;;;;;16.13;11.40;;;7.10;99.90;;;;;;4957093;28;20763;-37
2023/12/05 19:20:19;;;;;;;19.67;12.40;;;7.10;99.90;;;;;;4952729;28;20433;-36
2023/12/05 19:22:46;;;;;;;20.30;12.40;;;7.10;99.90;;;;;;4939367;28;20439;-36
2023/12/05 19:25:12;;;;;;;19.00;11.87;;;7.10;99.90;;;;;;4958922;28;20993;-36
2023/12/05 19:27:39;;;;;;;18.13;11.80;;;7.10;99.90;;;;;;4968276;28;21065;-34
2023/12/05 19:30:07;;;;;;;17.60;11.13;;;7.10;99.90;;;;;;4948955;28;20941;-37
2023/12/05 19:32:33;;;;;;;18.13;11.80;;;7.10;99.90;;;;;;4938885;28;20553;-38
2023/12/05 19:35:06;;;;;;;17.87;11.90;;;7.10;99.90;;;;;;4953487;28;20464;-38
2023/12/05 19:37:36;;;;;;;18.50;11.60;;;7.10;99.90;;;;;;4958984;28;20431;-34
2023/12/05 19:40:05;;;;;;;20.63;12.50;;;7.10;99.90;;;;;;4955588;28;20517;-37
2023/12/05 19:42:34;;;;;;;19.90;12.67;;;7.10;99.90;;;;;;4954288;28;20443;-32
2023/12/05 19:45:00;;;;;;;17.37;11.80;;;7.10;99.90;;;;;;4951905;28;20546;-38
2023/12/05 19:47:26;;;;;;;21.10;13.73;;;7.10;99.90;;;;;;4972046;28;20549;-37
2023/12/05 19:49:57;;;;;;;17.90;12.60;;;7.10;99.90;;;;;;4937481;28;20973;-38
2023/12/05 19:52:23;;;;;;;18.63;12.60;;;7.10;99.90;;;;;;4970353;28;20427;-36
2023/12/05 19:54:49;;;;;;;18.00;12.70;;;7.10;99.90;;;;;;4972078;28;20446;-38
2023/12/05 19:57:15;;;;;;;21.47;13.70;;;7.10;99.90;;;;;;4935712;28;21120;-34
2023/12/05 19:59:44;;;;;;;20.20;13.27;;;7.10;99.90;;;;;;4953318;28;21008;-36
2023/12/05 20:02:11;;;;;;;20.47;13.20;;;7.10;99.90;;;;;;4957829;28;20512;-33
2023/12/05 20:04:37;;;;;;;17.90;12.77;;;7.10;99.90;;;;;;4953013;28;20451;-37
2023/12/05 20:07:06;;;;;;;23.10;13.40;;;7.10;99.90;;;;;;4954771;28;20473;-39
2023/12/05 20:09:32;;;;;;;18.90;12.60;;;7.10;99.90;;;;;;4958105;28;21144;-39
2023/12/05 20:11:59;;;;;;;18.63;13.30;;;7.10;99.90;;;;;;4958284;28;20526;-32
2023/12/05 20:14:27;;;;;;;21.33;13.90;;;7.10;99.90;;;;;;4958682;28;20446;-34
2023/12/05 20:16:56;;;;;;;20.00;13.23;;;7.10;99.90;;;;;;4958949;28;20509;-35
2023/12/05 20:19:23;;;;;;;21.13;13.20;;;7.10;99.90;;;;;;4954374;28;20471;-34
2023/12/05 20:21:49;;;;;;;22.50;13.60;;;7.10;99.90;;;;;;4953413;28;20538;-33
2023/12/05 20:24:15;;;;;;;19.27;13.00;;;7.10;99.90;;;;;;4960140;28;20865;-33
2023/12/05 20:26:43;;;;;;;22.67;13.83;;;7.10;99.90;;;;;;4949760;28;21874;-33
2023/12/05 20:29:14;;;;;;;18.10;12.80;;;7.10;99.90;;;;;;4956023;28;20494;-33
2023/12/05 20:31:42;;;;;;;21.10;13.70;;;7.10;99.90;;;;;;4955425;28;20569;-36
2023/12/05 20:34:10;;;;;;;19.57;13.53;;;7.10;99.90;;;;;;4951052;28;20451;-30
2023/12/05 20:36:41;;;;;;;20.10;14.00;;;7.10;99.90;;;;;;4957989;28;20537;-32
2023/12/05 20:39:09;;;;;;;21.20;14.00;;;7.10;99.90;;;;;;4949904;28;20498;-35
2023/12/05 20:41:35;;;;;;;20.53;12.37;;;7.10;99.90;;;;;;4957149;28;20484;-29
2023/12/05 20:44:04;;;;;;;18.87;13.20;;;7.10;99.90;;;;;;4953434;28;20509;-29
2023/12/05 20:46:30;;;;;;;21.33;13.03;;;7.10;99.90;;;;;;4956276;28;21897;-32
2023/12/05 20:48:59;;;;;;;19.63;12.87;;;7.10;99.90;;;;;;4954858;28;20505;-36
2023/12/05 20:51:28;;;;;;;20.17;12.80;;;7.00;99.90;;;;;;4960866;28;20908;-29
2023/12/05 20:53:54;;;;;;;22.40;14.47;;;7.00;99.90;;;;;;4959521;28;20454;-34